Time;durP1;ratioP1;P1;durP2;ratioP2;P2;SDS_P1;SDS_P2;PMS_P1;PMS_P2;Temp;Humidity;BMP_temperature;BMP_pressure;BME280_temperature;BME280_humidity;BME280_pressure;Samples;Min_cycle;Max_cycle;Signal;HPM_P1;HPM_P2
2022/08/18 00:00:18;;;;;;;;;;;29.00;52.40;;;;;;5093207;28;19917;-64
2022/08/18 00:02:44;;;;;;;;;;;28.90;52.40;;;;;;5074621;28;20011;-64
2022/08/18 00:05:11;;;;;;;;;;;28.90;52.40;;;;;;5087183;28;20261;-64
2022/08/18 00:07:37;;;;;;;;;;;28.80;52.40;;;;;;5091736;28;20010;-64
2022/08/18 00:10:03;;;;;;;;;;;28.80;52.40;;;;;;5056236;28;20367;-64
2022/08/18 00:12:29;;;;;;;;;;;28.90;52.60;;;;;;5091773;28;19916;-64
2022/08/18 00:14:55;;;;;;;;;;;28.90;52.50;;;;;;5059008;28;19991;-64
2022/08/18 00:17:21;;;;;;;;;;;28.90;52.60;;;;;;5068159;28;19926;-63
2022/08/18 00:19:46;;;;;;;;;;;28.80;52.60;;;;;;5086857;28;20304;-63
2022/08/18 00:22:14;;;;;;;;;;;28.80;52.70;;;;;;5072300;28;20018;-64
2022/08/18 00:24:39;;;;;;;;;;;28.80;52.70;;;;;;5084436;28;19912;-64
2022/08/18 00:27:05;;;;;;;;;;;28.90;52.80;;;;;;5090029;28;19916;-64
2022/08/18 00:29:30;;;;;;;;;;;28.90;52.80;;;;;;5090466;28;20027;-64
2022/08/18 00:31:56;;;;;;;;;;;28.80;52.90;;;;;;5089826;28;19923;-64
2022/08/18 00:34:21;;;;;;;;;;;28.90;52.80;;;;;;5073307;28;20291;-64
2022/08/18 00:36:48;;;;;;;;;;;29.00;52.70;;;;;;5073072;28;20011;-64
2022/08/18 00:39:14;;;;;;;;;;;29.00;52.80;;;;;;5067941;28;19966;-64
2022/08/18 00:41:39;;;;;;;;;;;29.10;52.80;;;;;;5090904;28;19920;-64
2022/08/18 00:44:05;;;;;;;;;;;29.10;52.70;;;;;;5073288;28;19918;-64
2022/08/18 00:46:32;;;;;;;;;;;29.20;52.70;;;;;;5090922;28;19973;-64
2022/08/18 00:48:57;;;;;;;;;;;29.10;52.50;;;;;;5092646;28;19916;-64
2022/08/18 00:51:33;;;;;;;;;;;29.10;52.70;;;;;;5071632;28;19912;-64
2022/08/18 00:54:00;;;;;;;;;;;29.10;53.00;;;;;;5088083;28;20729;-64
2022/08/18 00:56:27;;;;;;;;;;;29.10;53.10;;;;;;5074406;28;19966;-64
2022/08/18 00:58:56;;;;;;;;;;;29.10;53.10;;;;;;5090191;28;19912;-64
2022/08/18 01:01:24;;;;;;;;;;;29.10;53.20;;;;;;5090224;28;19973;-64
2022/08/18 01:03:52;;;;;;;;;;;29.10;53.10;;;;;;5074877;28;20284;-64
2022/08/18 01:06:31;;;;;;;;;;;29.10;53.30;;;;;;5056771;28;19976;-64
2022/08/18 01:08:56;;;;;;;;;;;29.10;53.00;;;;;;5068785;28;19913;-64
2022/08/18 01:11:22;;;;;;;;;;;29.10;53.20;;;;;;5089489;28;19961;-64
2022/08/18 01:13:47;;;;;;;;;;;29.10;53.30;;;;;;5087024;28;19956;-64
2022/08/18 01:21:52;;;;;;;;;;;29.10;53.10;;;;;;5087355;28;19974;-64
2022/08/18 01:25:58;;;;;;;;;;;29.10;53.00;;;;;;5054908;28;19912;-64
2022/08/18 01:27:10;;;;;;;;;;;29.10;52.90;;;;;;5076596;28;20355;-64
2022/08/18 01:29:36;;;;;;;;;;;29.10;53.40;;;;;;5071455;28;19956;-64
2022/08/18 01:32:01;;;;;;;;;;;29.10;53.30;;;;;;5088278;28;19916;-64
2022/08/18 01:34:27;;;;;;;;;;;29.10;53.50;;;;;;5090567;28;19913;-64
2022/08/18 01:36:52;;;;;;;;;;;29.10;53.50;;;;;;5090682;28;19981;-64
2022/08/18 01:39:18;;;;;;;;;;;29.10;53.10;;;;;;5071805;28;19920;-64
2022/08/18 01:41:43;;;;;;;;;;;29.20;53.20;;;;;;5085919;28;19920;-64
2022/08/18 01:44:10;;;;;;;;;;;29.20;53.10;;;;;;5072640;28;19934;-64
2022/08/18 01:46:36;;;;;;;;;;;29.20;53.10;;;;;;5083464;28;20368;-64
2022/08/18 01:49:02;;;;;;;;;;;29.20;53.30;;;;;;5088272;28;19912;-64
2022/08/18 01:51:28;;;;;;;;;;;29.20;53.20;;;;;;5070141;28;19912;-64
2022/08/18 01:53:54;;;;;;;;;;;29.20;53.10;;;;;;5089558;28;19947;-64
2022/08/18 01:56:19;;;;;;;;;;;29.10;53.10;;;;;;5072119;28;20410;-64
2022/08/18 01:58:46;;;;;;;;;;;29.20;53.10;;;;;;5089470;28;19920;-64
2022/08/18 02:01:12;;;;;;;;;;;29.20;53.20;;;;;;5086357;28;19916;-64
2022/08/18 02:03:38;;;;;;;;;;;29.20;53.10;;;;;;5082765;28;19919;-64
2022/08/18 02:06:05;;;;;;;;;;;29.20;52.90;;;;;;5090272;28;19920;-64
2022/08/18 02:08:31;;;;;;;;;;;29.20;52.90;;;;;;5090415;28;19919;-64
2022/08/18 02:10:57;;;;;;;;;;;29.20;53.10;;;;;;5089178;28;20435;-64
2022/08/18 02:13:23;;;;;;;;;;;29.20;53.10;;;;;;5074763;28;19920;-64
2022/08/18 02:15:49;;;;;;;;;;;29.20;53.10;;;;;;5108922;28;20268;-64
2022/08/18 02:18:21;;;;;;;;;;;29.10;53.00;;;;;;5094345;28;19934;-64
2022/08/18 02:20:46;;;;;;;;;;;29.20;52.90;;;;;;5065645;28;19919;-64
2022/08/18 02:23:12;;;;;;;;;;;29.20;52.90;;;;;;5091071;28;19923;-64
2022/08/18 02:25:37;;;;;;;;;;;29.10;53.20;;;;;;5081072;28;19919;-64
2022/08/18 02:28:03;;;;;;;;;;;29.10;53.00;;;;;;5103979;28;20599;-64
2022/08/18 02:30:29;;;;;;;;;;;29.20;53.00;;;;;;5114942;28;19920;-64
2022/08/18 02:32:56;;;;;;;;;;;29.10;52.90;;;;;;5106390;28;19916;-64
2022/08/18 02:35:21;;;;;;;;;;;29.20;52.90;;;;;;5090100;28;19908;-64
2022/08/18 02:37:47;;;;;;;;;;;29.10;52.90;;;;;;5095118;28;20236;-64
2022/08/18 02:40:13;;;;;;;;;;;29.20;52.80;;;;;;5094507;28;19931;-64
2022/08/18 02:42:38;;;;;;;;;;;29.10;53.00;;;;;;5096129;28;19951;-64
2022/08/18 02:45:04;;;;;;;;;;;29.10;52.90;;;;;;5076989;28;19923;-64
2022/08/18 02:47:30;;;;;;;;;;;29.20;52.80;;;;;;5059154;28;19919;-64
2022/08/18 02:49:56;;;;;;;;;;;29.20;52.80;;;;;;5094916;28;19912;-64
2022/08/18 02:52:21;;;;;;;;;;;29.20;52.70;;;;;;5071907;28;20276;-64
2022/08/18 02:54:47;;;;;;;;;;;29.10;52.80;;;;;;5083399;28;20007;-63
2022/08/18 02:57:13;;;;;;;;;;;29.10;52.80;;;;;;5094939;28;19915;-64
2022/08/18 02:59:39;;;;;;;;;;;29.10;52.80;;;;;;5093629;28;19916;-64
2022/08/18 03:02:05;;;;;;;;;;;29.10;52.80;;;;;;5095130;28;20405;-64
2022/08/18 03:04:30;;;;;;;;;;;29.10;52.80;;;;;;5094830;28;19931;-64
2022/08/18 03:06:57;;;;;;;;;;;29.20;52.80;;;;;;5073984;28;19912;-64
2022/08/18 03:09:22;;;;;;;;;;;29.10;52.70;;;;;;5090039;28;19912;-64
2022/08/18 03:11:48;;;;;;;;;;;29.10;52.70;;;;;;5093598;28;19919;-64
2022/08/18 03:14:13;;;;;;;;;;;29.10;52.60;;;;;;5105008;28;19919;-64
2022/08/18 03:16:39;;;;;;;;;;;29.10;52.40;;;;;;5115086;28;20399;-64
2022/08/18 03:19:05;;;;;;;;;;;29.10;52.70;;;;;;5096631;28;19955;-64
2022/08/18 03:21:30;;;;;;;;;;;29.10;52.70;;;;;;5114999;28;20016;-64
2022/08/18 03:23:56;;;;;;;;;;;29.10;52.70;;;;;;5088936;28;19920;-64
2022/08/18 03:26:22;;;;;;;;;;;29.10;52.70;;;;;;5090447;28;20390;-64
2022/08/18 03:28:48;;;;;;;;;;;29.10;52.70;;;;;;5088788;28;20053;-64
2022/08/18 03:31:14;;;;;;;;;;;29.10;52.70;;;;;;5115110;28;19912;-64
2022/08/18 03:33:41;;;;;;;;;;;29.00;52.80;;;;;;5112607;28;19921;-64
2022/08/18 03:36:07;;;;;;;;;;;29.00;52.80;;;;;;5112215;28;20009;-64
2022/08/18 03:38:33;;;;;;;;;;;28.90;52.80;;;;;;5109975;28;19925;-64
2022/08/18 03:40:58;;;;;;;;;;;29.00;52.80;;;;;;5089970;28;20332;-64
2022/08/18 03:43:23;;;;;;;;;;;28.90;52.80;;;;;;5111892;28;20006;-64
2022/08/18 03:45:49;;;;;;;;;;;28.90;52.90;;;;;;5111921;28;19965;-64
2022/08/18 03:48:15;;;;;;;;;;;28.90;52.70;;;;;;5084645;28;19919;-64
2022/08/18 03:50:40;;;;;;;;;;;28.90;52.60;;;;;;5085452;28;19938;-64
2022/08/18 03:53:06;;;;;;;;;;;29.00;52.70;;;;;;5112555;28;20371;-64
2022/08/18 03:55:31;;;;;;;;;;;29.00;52.50;;;;;;5093300;28;19916;-64
2022/08/18 03:57:58;;;;;;;;;;;29.00;52.40;;;;;;5106868;28;19955;-64
2022/08/18 04:00:25;;;;;;;;;;;28.80;52.60;;;;;;5084138;28;19916;-65
2022/08/18 04:02:51;;;;;;;;;;;28.80;52.60;;;;;;5094489;28;20261;-64
2022/08/18 04:05:16;;;;;;;;;;;28.80;52.70;;;;;;5091784;28;19992;-64
2022/08/18 04:07:41;;;;;;;;;;;28.80;52.70;;;;;;5094192;28;20356;-64
2022/08/18 04:10:07;;;;;;;;;;;28.90;52.70;;;;;;5109553;28;19942;-64
2022/08/18 04:12:33;;;;;;;;;;;28.80;52.60;;;;;;5107501;28;19920;-64
2022/08/18 04:14:58;;;;;;;;;;;28.80;53.20;;;;;;5090034;28;19924;-64
2022/08/18 04:17:23;;;;;;;;;;;28.80;52.50;;;;;;5095695;28;19947;-64
2022/08/18 04:19:50;;;;;;;;;;;28.80;52.50;;;;;;5073268;28;19912;-64
2022/08/18 04:22:16;;;;;;;;;;;28.80;52.50;;;;;;5093232;28;20019;-64
2022/08/18 04:24:42;;;;;;;;;;;28.80;52.60;;;;;;5080315;28;20018;-64
2022/08/18 04:27:07;;;;;;;;;;;28.80;52.50;;;;;;5093063;28;19916;-64
2022/08/18 04:29:32;;;;;;;;;;;28.80;52.60;;;;;;5087291;28;20440;-64
2022/08/18 04:31:59;;;;;;;;;;;28.80;52.60;;;;;;5094881;28;19926;-64
2022/08/18 04:34:25;;;;;;;;;;;28.80;52.60;;;;;;5091820;28;19954;-64
2022/08/18 04:36:53;;;;;;;;;;;28.90;52.50;;;;;;5070952;28;19975;-64
2022/08/18 04:39:19;;;;;;;;;;;28.90;52.50;;;;;;5090904;28;20015;-64
2022/08/18 04:41:45;;;;;;;;;;;28.80;52.60;;;;;;5072508;28;19968;-64
2022/08/18 04:44:10;;;;;;;;;;;28.80;52.90;;;;;;5089790;28;20657;-64
2022/08/18 04:46:40;;;;;;;;;;;28.70;52.80;;;;;;5064797;28;19923;-64
2022/08/18 04:49:06;;;;;;;;;;;28.80;52.90;;;;;;5083430;28;19923;-64
2022/08/18 04:51:32;;;;;;;;;;;28.90;52.70;;;;;;5066206;28;19964;-64
2022/08/18 04:53:59;;;;;;;;;;;28.80;52.90;;;;;;5090867;28;19998;-64
2022/08/18 04:56:26;;;;;;;;;;;28.80;53.00;;;;;;5093632;28;19919;-64
2022/08/18 04:58:55;;;;;;;;;;;28.70;53.10;;;;;;5090990;28;19912;-64
2022/08/18 05:01:26;;;;;;;;;;;28.80;53.20;;;;;;5083602;28;20379;-64
2022/08/18 05:03:52;;;;;;;;;;;28.70;53.20;;;;;;5088117;28;20008;-64
2022/08/18 05:06:18;;;;;;;;;;;28.70;53.10;;;;;;5089828;28;19953;-64
2022/08/18 05:08:44;;;;;;;;;;;28.80;53.00;;;;;;5089724;28;19916;-64
2022/08/18 05:11:09;;;;;;;;;;;28.80;53.20;;;;;;5071824;28;19920;-64
2022/08/18 05:13:35;;;;;;;;;;;28.70;53.30;;;;;;5098593;28;19963;-64
2022/08/18 05:16:03;;;;;;;;;;;28.60;53.30;;;;;;5104864;28;19916;-64
2022/08/18 05:18:29;;;;;;;;;;;28.60;53.40;;;;;;5105108;28;19942;-64
2022/08/18 05:20:55;;;;;;;;;;;28.70;53.40;;;;;;5107113;28;19919;-64
2022/08/18 05:23:20;;;;;;;;;;;28.70;53.40;;;;;;5092005;28;20398;-64
2022/08/18 05:25:46;;;;;;;;;;;28.70;53.20;;;;;;5093664;28;19908;-64
2022/08/18 05:28:13;;;;;;;;;;;28.70;53.40;;;;;;5087063;28;19953;-64
2022/08/18 05:30:39;;;;;;;;;;;28.60;53.40;;;;;;5110536;28;19951;-64
2022/08/18 05:33:05;;;;;;;;;;;28.70;53.40;;;;;;5105411;28;19919;-64
2022/08/18 05:35:41;;;;;;;;;;;28.70;53.30;;;;;;5086686;28;20283;-64
2022/08/18 05:38:19;;;;;;;;;;;28.70;53.30;;;;;;5090785;28;19919;-64
2022/08/18 05:41:03;;;;;;;;;;;28.80;53.20;;;;;;5097699;28;20279;-64
2022/08/18 05:43:29;;;;;;;;;;;28.80;53.20;;;;;;5076460;28;19931;-64
2022/08/18 05:45:55;;;;;;;;;;;28.80;53.20;;;;;;5094622;28;19907;-64
2022/08/18 05:48:21;;;;;;;;;;;28.80;53.40;;;;;;5068981;28;19919;-64
2022/08/18 05:50:46;;;;;;;;;;;28.80;53.50;;;;;;5091653;28;19908;-64
2022/08/18 05:53:13;;;;;;;;;;;28.80;53.60;;;;;;5082598;28;19920;-64
2022/08/18 05:58:24;;;;;;;;;;;28.70;53.80;;;;;;5081664;28;19918;-64
2022/08/18 06:00:52;;;;;;;;;;;28.60;54.10;;;;;;5108350;28;19973;-64
2022/08/18 06:03:20;;;;;;;;;;;28.70;54.20;;;;;;5093315;28;19916;-64
2022/08/18 06:05:50;;;;;;;;;;;28.60;54.30;;;;;;5096976;28;19918;-63
2022/08/18 06:08:16;;;;;;;;;;;28.70;54.50;;;;;;5093581;28;19931;-64
2022/08/18 06:10:43;;;;;;;;;;;28.60;54.50;;;;;;5081505;28;19916;-64
2022/08/18 06:13:09;;;;;;;;;;;28.60;54.60;;;;;;5109000;28;20810;-64
2022/08/18 06:15:34;;;;;;;;;;;28.70;54.80;;;;;;5115302;28;19908;-64
2022/08/18 06:18:18;;;;;;;;;;;28.60;54.70;;;;;;5112427;27;19980;-64
2022/08/18 06:20:49;;;;;;;;;;;28.60;54.60;;;;;;5099086;28;19912;-64
2022/08/18 06:23:20;;;;;;;;;;;28.70;54.70;;;;;;5097148;28;19962;-64
2022/08/18 06:25:54;;;;;;;;;;;28.70;54.80;;;;;;5093742;28;19967;-64
2022/08/18 06:28:20;;;;;;;;;;;28.70;54.80;;;;;;5095165;28;20001;-64
2022/08/18 06:30:48;;;;;;;;;;;28.70;54.60;;;;;;5095691;28;20371;-64
2022/08/18 06:33:32;;;;;;;;;;;28.60;54.70;;;;;;5097318;28;20031;-64
2022/08/18 06:36:11;;;;;;;;;;;28.60;54.80;;;;;;5115030;28;20264;-64
2022/08/18 06:38:42;;;;;;;;;;;28.60;54.90;;;;;;5088483;28;19908;-64
2022/08/18 06:41:09;;;;;;;;;;;28.60;55.20;;;;;;5084275;28;19919;-64
2022/08/18 06:43:39;;;;;;;;;;;28.60;55.40;;;;;;5092535;28;19957;-64
2022/08/18 06:46:11;;;;;;;;;;;28.40;55.80;;;;;;5108353;28;20006;-64
2022/08/18 06:48:38;;;;;;;;;;;28.40;55.80;;;;;;5110906;28;19918;-64
2022/08/18 06:51:05;;;;;;;;;;;28.30;56.00;;;;;;5078432;28;19969;-64
2022/08/18 06:53:51;;;;;;;;;;;28.30;56.00;;;;;;5092248;28;19964;-64
2022/08/18 06:56:39;;;;;;;;;;;28.30;56.10;;;;;;5114541;28;19964;-65
2022/08/18 06:59:17;;;;;;;;;;;28.10;56.50;;;;;;5109195;28;19916;-65
2022/08/18 07:01:43;;;;;;;;;;;28.10;56.70;;;;;;5113141;28;19945;-64
2022/08/18 07:04:08;;;;;;;;;;;28.10;56.50;;;;;;5079805;28;19907;-64
2022/08/18 07:06:34;;;;;;;;;;;28.00;56.80;;;;;;5092165;28;19943;-64
2022/08/18 07:09:18;;;;;;;;;;;28.10;56.70;;;;;;5074686;28;19984;-64
2022/08/18 07:11:56;;;;;;;;;;;28.10;56.80;;;;;;5107030;28;20054;-65
2022/08/18 07:14:22;;;;;;;;;;;28.10;56.90;;;;;;5098632;27;19916;-64
2022/08/18 07:16:47;;;;;;;;;;;28.10;56.80;;;;;;5095966;28;19912;-64
2022/08/18 07:19:15;;;;;;;;;;;28.20;56.80;;;;;;5093440;28;20537;-64
2022/08/18 07:21:41;;;;;;;;;;;28.20;56.90;;;;;;5086668;28;19920;-64
2022/08/18 07:24:07;;;;;;;;;;;28.10;56.90;;;;;;5093846;28;20274;-64
2022/08/18 07:26:51;;;;;;;;;;;28.00;57.20;;;;;;5094845;28;19924;-65
2022/08/18 07:29:17;;;;;;;;;;;28.00;57.10;;;;;;5107277;28;19949;-64
2022/08/18 07:31:47;;;;;;;;;;;28.00;57.20;;;;;;5107833;28;20355;-64
2022/08/18 07:34:36;;;;;;;;;;;28.00;57.10;;;;;;5090168;28;19912;-65
2022/08/18 07:37:03;;;;;;;;;;;28.00;57.00;;;;;;5100886;28;19965;-64
2022/08/18 07:39:30;;;;;;;;;;;28.00;57.10;;;;;;5088585;28;19981;-64
2022/08/18 07:41:59;;;;;;;;;;;27.90;57.00;;;;;;5075963;28;19970;-64
2022/08/18 07:44:39;;;;;;;;;;;28.00;57.00;;;;;;5109246;27;19915;-65
2022/08/18 07:47:11;;;;;;;;;;;28.00;57.00;;;;;;5112154;28;20383;-64
2022/08/18 07:49:44;;;;;;;;;;;27.90;57.10;;;;;;5092920;28;19916;-63
2022/08/18 07:52:13;;;;;;;;;;;27.90;57.10;;;;;;5112415;28;19916;-64
2022/08/18 07:54:41;;;;;;;;;;;27.80;57.20;;;;;;5109348;27;19916;-65
2022/08/18 07:57:12;;;;;;;;;;;27.80;57.30;;;;;;5113209;28;20332;-64
2022/08/18 07:59:38;;;;;;;;;;;27.90;57.20;;;;;;5111867;28;19926;-62
2022/08/18 08:02:16;;;;;;;;;;;27.90;57.30;;;;;;5111548;28;19920;-63
2022/08/18 08:04:50;;;;;;;;;;;27.90;57.20;;;;;;5102840;28;19947;-62
2022/08/18 08:07:17;;;;;;;;;;;27.90;57.30;;;;;;5106215;28;20382;-64
2022/08/18 08:09:42;;;;;;;;;;;27.80;57.30;;;;;;5092356;28;19930;-64
2022/08/18 08:12:26;;;;;;;;;;;27.80;57.30;;;;;;5109097;28;19920;-62
2022/08/18 08:15:16;;;;;;;;;;;27.80;57.40;;;;;;5111505;28;19924;-65
2022/08/18 08:17:45;;;;;;;;;;;27.80;57.30;;;;;;5046558;28;20018;-64
2022/08/18 08:20:13;;;;;;;;;;;27.90;57.30;;;;;;5110706;28;19923;-64
2022/08/18 08:22:44;;;;;;;;;;;27.90;57.30;;;;;;5112278;28;19924;-64
2022/08/18 08:25:15;;;;;;;;;;;27.90;57.40;;;;;;5093203;28;19980;-64
2022/08/18 08:27:46;;;;;;;;;;;27.90;57.30;;;;;;5111702;28;19920;-65
2022/08/18 08:30:13;;;;;;;;;;;27.90;57.20;;;;;;5098528;28;19922;-64
2022/08/18 08:32:48;;;;;;;;;;;27.90;57.30;;;;;;5092071;28;20283;-64
2022/08/18 08:35:16;;;;;;;;;;;28.00;57.30;;;;;;5105876;27;19916;-64
2022/08/18 08:37:47;;;;;;;;;;;28.00;57.10;;;;;;5106333;28;19919;-64
2022/08/18 08:40:17;;;;;;;;;;;28.00;57.00;;;;;;5089216;28;20387;-64
2022/08/18 08:42:51;;;;;;;;;;;28.00;57.10;;;;;;5092659;28;19934;-62
2022/08/18 08:45:20;;;;;;;;;;;28.00;57.00;;;;;;5111562;28;19915;-64
2022/08/18 08:47:50;;;;;;;;;;;28.10;56.90;;;;;;5105863;28;19907;-64
2022/08/18 08:50:17;;;;;;;;;;;28.00;56.70;;;;;;5091273;28;19911;-63
2022/08/18 08:52:44;;;;;;;;;;;28.10;56.80;;;;;;5108715;28;19965;-63
2022/08/18 08:55:13;;;;;;;;;;;28.10;56.70;;;;;;5092933;28;19919;-61
2022/08/18 08:57:41;;;;;;;;;;;28.00;56.70;;;;;;5072929;28;19948;-62
2022/08/18 09:00:07;;;;;;;;;;;27.80;57.20;;;;;;5093937;28;19916;-64
2022/08/18 09:02:33;;;;;;;;;;;27.80;57.40;;;;;;5093862;28;20437;-63
2022/08/18 09:05:07;;;;;;;;;;;27.80;57.30;;;;;;5111591;28;19915;-63
2022/08/18 09:07:35;;;;;;;;;;;27.70;57.40;;;;;;5112368;28;19908;-63
2022/08/18 09:10:07;;;;;;;;;;;27.70;57.30;;;;;;5104182;28;19938;-64
2022/08/18 09:12:48;;;;;;;;;;;27.80;57.00;;;;;;5110704;28;19915;-64
2022/08/18 09:15:26;;;;;;;;;;;27.90;56.90;;;;;;5069508;28;19939;-64
2022/08/18 09:17:54;;;;;;;;;;;27.90;56.70;;;;;;5089858;28;20012;-63
2022/08/18 09:20:26;;;;;;;;;;;27.90;56.60;;;;;;5072374;28;20021;-64
2022/08/18 09:23:03;;;;;;;;;;;28.00;56.50;;;;;;5090618;28;19920;-64
2022/08/18 09:25:38;;;;;;;;;;;28.00;56.40;;;;;;5067389;28;19916;-64
2022/08/18 09:28:19;;;;;;;;;;;28.10;56.40;;;;;;5086787;28;19927;-64
2022/08/18 09:30:47;;;;;;;;;;;28.00;56.50;;;;;;5082034;28;20352;-64
2022/08/18 09:33:22;;;;;;;;;;;28.00;56.40;;;;;;5087656;28;19913;-64
2022/08/18 09:35:53;;;;;;;;;;;28.10;56.50;;;;;;5079427;28;19920;-64
2022/08/18 09:44:10;;;;;;;;;;;28.10;56.60;;;;;;5075005;28;20342;-63
2022/08/18 09:46:41;;;;;;;;;;;28.00;56.80;;;;;;5082092;28;20006;-63
2022/08/18 09:49:22;;;;;;;;;;;28.00;56.70;;;;;;5071705;28;20372;-63
2022/08/18 09:51:49;;;;;;;;;;;28.00;56.80;;;;;;5088663;28;19958;-64
2022/08/18 09:54:16;;;;;;;;;;;28.00;56.90;;;;;;5083989;28;20268;-63
2022/08/18 09:56:48;;;;;;;;;;;28.00;56.80;;;;;;5071100;28;19916;-64
2022/08/18 09:59:32;;;;;;;;;;;28.00;56.70;;;;;;5068716;28;20512;-63
2022/08/18 10:02:00;;;;;;;;;;;28.10;56.80;;;;;;5084930;28;20053;-62
2022/08/18 10:04:26;;;;;;;;;;;28.00;56.70;;;;;;5087584;28;20363;-63
2022/08/18 10:06:52;;;;;;;;;;;28.00;56.80;;;;;;5073270;28;19920;-63
2022/08/18 10:09:26;;;;;;;;;;;28.00;56.70;;;;;;5071655;28;19923;-63
2022/08/18 10:11:55;;;;;;;;;;;28.00;56.60;;;;;;5081832;28;20411;-63
2022/08/18 10:14:21;;;;;;;;;;;28.00;56.80;;;;;;5104085;28;19916;-63
2022/08/18 10:16:57;;;;;;;;;;;27.90;56.90;;;;;;5104377;28;20433;-64
2022/08/18 10:19:33;;;;;;;;;;;28.00;56.90;;;;;;5088817;28;20406;-64
2022/08/18 10:21:58;;;;;;;;;;;28.00;56.90;;;;;;5111863;28;19994;-64
2022/08/18 10:24:37;;;;;;;;;;;28.00;56.80;;;;;;5107138;28;20367;-63
2022/08/18 10:27:04;;;;;;;;;;;28.00;57.10;;;;;;5111596;28;19908;-63
2022/08/18 10:29:30;;;;;;;;;;;28.00;57.10;;;;;;5111608;28;20394;-63
2022/08/18 10:31:56;;;;;;;;;;;28.10;57.10;;;;;;5108254;28;21483;-63
2022/08/18 10:34:40;;;;;;;;;;;28.10;57.20;;;;;;5106749;28;19911;-64
2022/08/18 10:37:12;;;;;;;;;;;28.10;57.30;;;;;;5102340;28;20011;-64
2022/08/18 10:39:38;;;;;;;;;;;28.10;57.60;;;;;;5091343;28;20393;-64
2022/08/18 10:42:09;;;;;;;;;;;28.20;57.10;;;;;;5107319;28;19919;-65
2022/08/18 10:44:36;;;;;;;;;;;28.10;57.00;;;;;;5091680;28;20337;-64
2022/08/18 10:47:01;;;;;;;;;;;28.10;57.10;;;;;;5093356;28;20363;-64
2022/08/18 10:49:27;;;;;;;;;;;28.10;57.20;;;;;;5093002;28;19949;-64
2022/08/18 10:51:53;;;;;;;;;;;28.00;57.10;;;;;;5095594;28;19916;-64
2022/08/18 10:54:23;;;;;;;;;;;28.10;57.20;;;;;;5106978;28;20034;-65
2022/08/18 10:56:51;;;;;;;;;;;28.20;57.00;;;;;;5102312;28;19939;-62
2022/08/18 10:59:23;;;;;;;;;;;28.20;56.90;;;;;;5096802;28;20010;-64
2022/08/18 11:01:51;;;;;;;;;;;28.20;56.90;;;;;;5113234;28;19916;-63
2022/08/18 11:04:25;;;;;;;;;;;28.20;57.00;;;;;;5115313;28;19970;-63
2022/08/18 11:06:52;;;;;;;;;;;28.10;56.80;;;;;;5115304;28;19911;-65
2022/08/18 11:09:23;;;;;;;;;;;28.10;57.10;;;;;;5095962;28;19914;-65
2022/08/18 11:11:48;;;;;;;;;;;28.10;57.10;;;;;;5115233;28;20003;-64
2022/08/18 11:14:32;;;;;;;;;;;28.10;56.90;;;;;;5095737;28;20000;-64
2022/08/18 11:17:03;;;;;;;;;;;28.20;56.90;;;;;;5115308;28;19943;-63
2022/08/18 11:19:28;;;;;;;;;;;28.20;56.90;;;;;;5096589;28;19947;-63
2022/08/18 11:21:53;;;;;;;;;;;28.10;56.90;;;;;;5096679;28;19966;-63
2022/08/18 11:24:20;;;;;;;;;;;28.20;56.80;;;;;;5079081;28;19927;-63
2022/08/18 11:26:47;;;;;;;;;;;28.10;56.90;;;;;;5095453;28;19915;-63
2022/08/18 11:29:20;;;;;;;;;;;28.10;56.80;;;;;;5093946;28;19999;-63
2022/08/18 11:31:46;;;;;;;;;;;28.20;56.70;;;;;;5114347;28;19912;-64
2022/08/18 11:34:16;;;;;;;;;;;28.30;56.50;;;;;;5091109;28;19926;-63
2022/08/18 11:36:41;;;;;;;;;;;28.30;57.00;;;;;;5090918;28;20003;-64
2022/08/18 11:39:08;;;;;;;;;;;28.40;56.40;;;;;;5093648;28;19927;-64
2022/08/18 11:41:33;;;;;;;;;;;28.40;56.30;;;;;;5094597;28;19970;-63
2022/08/18 11:44:01;;;;;;;;;;;28.50;56.50;;;;;;5093785;28;19989;-63
2022/08/18 11:46:27;;;;;;;;;;;28.40;56.80;;;;;;5113964;28;19914;-63
2022/08/18 11:48:53;;;;;;;;;;;28.40;56.90;;;;;;5086181;28;19911;-64
2022/08/18 11:51:20;;;;;;;;;;;28.40;56.90;;;;;;5095364;28;19923;-64
2022/08/18 11:53:45;;;;;;;;;;;28.40;57.00;;;;;;5112974;28;20001;-64
2022/08/18 11:56:14;;;;;;;;;;;28.50;56.50;;;;;;5111445;28;20354;-65
2022/08/18 11:58:44;;;;;;;;;;;28.60;56.20;;;;;;5100381;28;19912;-63
2022/08/18 12:01:30;;;;;;;;;;;28.60;55.80;;;;;;5093858;28;19927;-62
2022/08/18 12:03:57;;;;;;;;;;;28.60;55.90;;;;;;5098879;28;20352;-62
2022/08/18 12:06:26;;;;;;;;;;;28.60;55.90;;;;;;5089907;28;19935;-64
2022/08/18 12:08:52;;;;;;;;;;;28.60;55.90;;;;;;5094726;28;19977;-62
2022/08/18 12:11:19;;;;;;;;;;;28.60;55.70;;;;;;5113614;28;19947;-63
2022/08/18 12:13:45;;;;;;;;;;;28.50;56.20;;;;;;5105386;28;19920;-62
2022/08/18 12:16:11;;;;;;;;;;;28.60;56.20;;;;;;5092654;28;20008;-63
2022/08/18 12:18:37;;;;;;;;;;;28.60;56.00;;;;;;5106886;28;19909;-61
2022/08/18 12:21:02;;;;;;;;;;;28.60;56.10;;;;;;5112562;28;19916;-63
2022/08/18 12:23:30;;;;;;;;;;;28.70;56.00;;;;;;5106878;28;21254;-62
2022/08/18 12:25:56;;;;;;;;;;;28.70;56.00;;;;;;5113107;28;20329;-63
2022/08/18 12:28:21;;;;;;;;;;;28.60;56.00;;;;;;5112219;28;19915;-64
2022/08/18 12:30:47;;;;;;;;;;;28.70;55.90;;;;;;5113000;28;20378;-64
2022/08/18 12:33:12;;;;;;;;;;;28.70;56.00;;;;;;5109441;28;19912;-61
2022/08/18 12:35:38;;;;;;;;;;;28.60;56.00;;;;;;5107977;28;19918;-64
2022/08/18 12:38:03;;;;;;;;;;;28.60;55.80;;;;;;5108983;28;20007;-63
2022/08/18 12:40:28;;;;;;;;;;;28.70;55.90;;;;;;5107171;28;20329;-63
2022/08/18 12:42:54;;;;;;;;;;;28.60;56.10;;;;;;5112909;28;20357;-64
2022/08/18 12:45:19;;;;;;;;;;;28.70;56.10;;;;;;5108194;28;19915;-62
2022/08/18 12:47:45;;;;;;;;;;;28.70;55.90;;;;;;5111243;28;19915;-61
2022/08/18 12:50:11;;;;;;;;;;;28.70;55.40;;;;;;5090386;28;19912;-61
2022/08/18 12:52:36;;;;;;;;;;;28.70;55.60;;;;;;5102965;28;19912;-62
2022/08/18 12:55:02;;;;;;;;;;;28.70;55.40;;;;;;5106702;28;20440;-61
2022/08/18 12:57:27;;;;;;;;;;;28.70;54.90;;;;;;5109850;28;19919;-63
2022/08/18 12:59:53;;;;;;;;;;;28.70;55.10;;;;;;5105113;27;19916;-64
2022/08/18 13:02:20;;;;;;;;;;;28.70;54.90;;;;;;5104979;28;19950;-62
2022/08/18 13:04:45;;;;;;;;;;;28.70;54.50;;;;;;5106501;28;19911;-61
2022/08/18 13:07:11;;;;;;;;;;;28.60;54.40;;;;;;5105469;28;19926;-63
2022/08/18 13:09:37;;;;;;;;;;;28.60;54.50;;;;;;5090229;28;20082;-63
2022/08/18 13:12:02;;;;;;;;;;;28.60;54.50;;;;;;5109755;28;20283;-64
2022/08/18 13:14:28;;;;;;;;;;;28.60;54.80;;;;;;5085454;28;19916;-63
2022/08/18 13:16:53;;;;;;;;;;;28.60;54.60;;;;;;5103726;27;19988;-63
2022/08/18 13:19:19;;;;;;;;;;;28.70;54.90;;;;;;5104792;28;20135;-64
2022/08/18 13:21:44;;;;;;;;;;;28.80;55.00;;;;;;5108763;28;19927;-64
2022/08/18 13:24:10;;;;;;;;;;;28.80;54.80;;;;;;5109595;28;19916;-65
2022/08/18 13:26:37;;;;;;;;;;;28.80;54.70;;;;;;5112290;28;19933;-64
2022/08/18 13:29:02;;;;;;;;;;;28.80;54.50;;;;;;5105619;28;19919;-64
2022/08/18 13:31:28;;;;;;;;;;;28.80;55.30;;;;;;5107088;28;19912;-64
2022/08/18 13:33:55;;;;;;;;;;;28.90;54.90;;;;;;5111251;28;19912;-64
2022/08/18 13:36:20;;;;;;;;;;;28.90;54.70;;;;;;5110864;28;19923;-64
2022/08/18 13:38:46;;;;;;;;;;;28.90;54.60;;;;;;5092629;28;20294;-63
2022/08/18 13:41:11;;;;;;;;;;;29.00;55.00;;;;;;5109237;28;19911;-63
2022/08/18 13:43:38;;;;;;;;;;;29.00;54.80;;;;;;5109863;28;19955;-64
2022/08/18 13:46:04;;;;;;;;;;;29.00;55.20;;;;;;5112099;28;19911;-62
2022/08/18 13:48:30;;;;;;;;;;;28.90;54.90;;;;;;5111963;28;19964;-64
2022/08/18 13:50:57;;;;;;;;;;;28.90;55.20;;;;;;5093713;28;19912;-63
2022/08/18 13:53:22;;;;;;;;;;;28.90;54.60;;;;;;5111505;28;20367;-63
2022/08/18 13:55:48;;;;;;;;;;;29.00;54.80;;;;;;5109959;28;19918;-64
2022/08/18 13:58:14;;;;;;;;;;;29.00;54.60;;;;;;5109877;28;20028;-64
2022/08/18 14:00:39;;;;;;;;;;;28.90;54.50;;;;;;5091926;28;19916;-64
2022/08/18 14:03:05;;;;;;;;;;;29.00;55.00;;;;;;5109899;28;19916;-64
2022/08/18 14:05:31;;;;;;;;;;;29.00;55.00;;;;;;5110632;28;19931;-65
2022/08/18 14:07:56;;;;;;;;;;;29.10;54.70;;;;;;5088733;28;19920;-63
2022/08/18 14:10:23;;;;;;;;;;;29.10;54.70;;;;;;5109762;28;19912;-64
2022/08/18 14:12:49;;;;;;;;;;;29.10;54.90;;;;;;5085380;28;19915;-62
2022/08/18 14:15:14;;;;;;;;;;;29.10;55.00;;;;;;5083882;28;19920;-63
2022/08/18 14:17:40;;;;;;;;;;;29.10;55.00;;;;;;5109447;28;19916;-63
2022/08/18 14:28:18;;;;;;;;;;;29.10;53.90;;;;;;5111963;28;19918;-65
2022/08/18 14:30:45;;;;;;;;;;;29.00;54.10;;;;;;5112269;28;20263;-65
2022/08/18 14:33:13;;;;;;;;;;;28.90;54.00;;;;;;5096228;28;19999;-65
2022/08/18 14:35:39;;;;;;;;;;;28.90;54.10;;;;;;5094376;28;19931;-65
2022/08/18 14:38:06;;;;;;;;;;;28.70;54.40;;;;;;5112190;28;20279;-65
2022/08/18 14:40:32;;;;;;;;;;;28.70;54.80;;;;;;5111047;28;19912;-62
2022/08/18 14:42:57;;;;;;;;;;;28.60;54.90;;;;;;5109274;27;20529;-63